createdAt,value
2018-04-06T00:00:20.690Z,2.90
2018-04-06T00:01:20.666Z,3.60
2018-04-06T00:02:21.295Z,3.20
2018-04-06T00:03:20.587Z,3.80
2018-04-06T00:04:20.618Z,3.50
2018-04-06T00:05:20.507Z,2.80
2018-04-06T00:06:20.510Z,3.00
2018-04-06T00:07:20.521Z,3.80
2018-04-06T00:08:20.432Z,2.90
2018-04-06T00:09:20.425Z,2.80
2018-04-06T00:10:20.348Z,2.60
2018-04-06T00:11:20.357Z,4.40
2018-04-06T00:12:20.327Z,4.20
2018-04-06T00:13:20.271Z,3.20
2018-04-06T00:14:20.253Z,3.20
2018-04-06T00:15:20.205Z,2.80
2018-04-06T00:16:20.172Z,2.70
2018-04-06T00:17:20.184Z,2.70
2018-04-06T00:18:20.128Z,2.60
2018-04-06T00:19:20.098Z,2.20
2018-04-06T00:20:20.072Z,2.60
2018-04-06T00:21:20.119Z,2.20
2018-04-06T00:22:20.013Z,1.90
2018-04-06T00:23:19.998Z,2.80
2018-04-06T00:24:19.936Z,2.40
2018-04-06T00:25:19.926Z,2.50
2018-04-06T00:26:19.900Z,2.10
2018-04-06T00:27:19.852Z,2.30
2018-04-06T00:28:19.847Z,2.60
2018-04-06T00:29:19.814Z,3.00
2018-04-06T00:30:19.766Z,2.40
2018-04-06T00:31:19.771Z,2.20
2018-04-06T00:32:19.756Z,2.20
2018-04-06T00:33:19.677Z,2.70
2018-04-06T00:34:19.659Z,2.30
2018-04-06T00:35:19.615Z,2.40
2018-04-06T00:36:19.586Z,2.10
2018-04-06T00:37:19.580Z,2.50
2018-04-06T00:38:19.526Z,2.00
2018-04-06T00:39:19.523Z,2.30
2018-04-06T00:40:19.454Z,2.10
2018-04-06T00:41:19.480Z,2.00
2018-04-06T00:42:19.437Z,2.20
2018-04-06T00:43:19.358Z,2.00
2018-04-06T00:44:19.345Z,2.60
2018-04-06T00:45:19.319Z,2.10
2018-04-06T00:46:19.314Z,2.60
2018-04-06T00:47:19.276Z,2.30
2018-04-06T00:48:19.220Z,2.00
2018-04-06T00:49:19.179Z,2.60
2018-04-06T00:50:19.167Z,2.40
2018-04-06T00:51:19.176Z,2.90
2018-04-06T00:52:19.102Z,2.90
2018-04-06T00:53:19.087Z,2.70
2018-04-06T00:54:19.107Z,2.30
2018-04-06T00:55:19.052Z,2.90
2018-04-06T00:56:19.036Z,2.40
2018-04-06T00:57:18.959Z,1.90
2018-04-06T00:58:18.968Z,2.20
2018-04-06T00:59:18.936Z,1.80
2018-04-06T01:00:18.890Z,2.40
2018-04-06T01:01:18.854Z,2.20
2018-04-06T01:02:18.841Z,2.10
2018-04-06T01:03:18.807Z,2.00
2018-04-06T01:04:18.765Z,1.90
2018-04-06T01:05:18.768Z,2.30
2018-04-06T01:06:18.691Z,2.30
2018-04-06T01:07:18.732Z,2.10
2018-04-06T01:08:18.675Z,2.50
2018-04-06T01:09:21.773Z,2.10
2018-04-06T01:10:20.759Z,2.30
2018-04-06T01:11:21.188Z,2.20
2018-04-06T01:12:21.706Z,2.20
2018-04-06T01:13:18.488Z,1.80
2018-04-06T01:14:18.474Z,2.00
2018-04-06T01:15:18.464Z,2.00
2018-04-06T01:16:18.501Z,1.90
2018-04-06T01:17:18.356Z,1.90
2018-04-06T01:18:18.379Z,2.60
2018-04-06T01:19:18.307Z,2.00
2018-04-06T01:20:18.298Z,2.90
2018-04-06T01:21:18.257Z,2.10
2018-04-06T01:22:18.221Z,2.10
2018-04-06T01:23:18.167Z,2.10
2018-04-06T01:24:18.173Z,2.70
2018-04-06T01:25:18.168Z,2.20
2018-04-06T01:26:18.166Z,2.70
2018-04-06T01:27:18.114Z,2.20
2018-04-06T01:28:18.016Z,2.40
2018-04-06T01:29:18.023Z,1.90
2018-04-06T01:30:18.074Z,2.20
2018-04-06T01:31:17.945Z,1.90
2018-04-06T01:32:17.971Z,2.40
2018-04-06T01:33:17.906Z,2.70
2018-04-06T01:34:17.877Z,3.10
2018-04-06T01:35:17.839Z,2.20
2018-04-06T01:36:17.831Z,2.30
2018-04-06T01:37:17.764Z,2.00
2018-04-06T01:38:17.729Z,2.10
2018-04-06T01:39:17.701Z,2.20
2018-04-06T01:40:17.676Z,2.50
2018-04-06T01:41:17.660Z,2.30
2018-04-06T01:42:17.628Z,2.30
2018-04-06T01:43:17.776Z,2.00
2018-04-06T01:44:17.558Z,2.10
2018-04-06T01:45:17.529Z,2.00
2018-04-06T01:46:17.502Z,2.30
2018-04-06T01:47:17.474Z,2.80
2018-04-06T01:48:17.449Z,2.00
2018-04-06T01:49:17.400Z,2.50
2018-04-06T01:50:17.376Z,2.70
2018-04-06T01:51:17.329Z,2.00
2018-04-06T01:52:17.379Z,2.30
2018-04-06T01:53:17.304Z,2.30
2018-04-06T01:54:17.270Z,2.30
2018-04-06T01:55:17.214Z,2.90
2018-04-06T01:56:17.175Z,2.30
2018-04-06T01:57:17.172Z,2.20
2018-04-06T01:58:17.153Z,2.80
2018-04-06T01:59:17.092Z,2.50
2018-04-06T02:00:17.141Z,2.10
2018-04-06T02:01:17.046Z,1.90
2018-04-06T02:02:17.029Z,2.40
2018-04-06T02:03:17.014Z,2.00
2018-04-06T02:04:16.973Z,2.50
2018-04-06T02:05:16.916Z,2.60
2018-04-06T02:06:16.904Z,2.50
2018-04-06T02:07:16.853Z,2.20
2018-04-06T02:08:16.853Z,2.50
2018-04-06T02:09:16.811Z,2.50
2018-04-06T02:10:16.766Z,2.60
2018-04-06T02:11:16.769Z,2.40
2018-04-06T02:12:16.759Z,2.30
2018-04-06T02:13:16.670Z,2.40
2018-04-06T02:14:16.659Z,3.00
2018-04-06T02:15:16.634Z,2.70
2018-04-06T02:16:16.606Z,2.80
2018-04-06T02:17:16.582Z,2.10
2018-04-06T02:18:16.567Z,2.00
2018-04-06T02:19:16.503Z,2.80
2018-04-06T02:20:16.481Z,2.50
2018-04-06T02:21:17.208Z,2.80
2018-04-06T02:22:16.436Z,2.50
2018-04-06T02:23:16.370Z,2.40
2018-04-06T02:24:16.346Z,2.40
2018-04-06T02:25:16.330Z,2.80
2018-04-06T02:26:16.292Z,2.60
2018-04-06T02:27:16.270Z,2.90
2018-04-06T02:28:16.237Z,2.90
2018-04-06T02:29:16.218Z,2.50
2018-04-06T02:30:16.194Z,2.70
2018-04-06T02:31:16.152Z,2.50
2018-04-06T02:32:16.705Z,3.40
2018-04-06T02:33:16.109Z,2.80
2018-04-06T02:34:16.051Z,2.80
2018-04-06T02:35:16.033Z,2.30
2018-04-06T02:36:15.990Z,2.60
2018-04-06T02:37:15.967Z,2.10
2018-04-06T02:38:15.946Z,2.70
2018-04-06T02:39:15.938Z,2.60
2018-04-06T02:40:15.880Z,2.50
2018-04-06T02:41:15.829Z,2.70
2018-04-06T02:42:15.794Z,2.80
2018-04-06T02:43:15.780Z,2.40
2018-04-06T02:44:15.803Z,2.80
2018-04-06T02:45:15.719Z,2.40
2018-04-06T02:46:15.695Z,2.40
2018-04-06T02:47:15.684Z,2.90
2018-04-06T02:48:15.621Z,2.50
2018-04-06T02:49:15.651Z,2.70
2018-04-06T02:50:15.567Z,2.10
2018-04-06T02:51:15.612Z,2.30
2018-04-06T02:52:15.512Z,2.10
2018-04-06T02:53:15.775Z,2.20
2018-04-06T02:54:15.483Z,2.50
2018-04-06T02:55:15.439Z,2.60
2018-04-06T02:56:15.407Z,2.30
2018-04-06T02:57:15.365Z,2.40
2018-04-06T02:58:15.352Z,2.60
2018-04-06T02:59:15.326Z,2.30
2018-04-06T03:00:15.304Z,2.40
2018-04-06T03:01:15.269Z,2.70
2018-04-06T03:02:15.227Z,2.60
2018-04-06T03:03:15.212Z,2.20
2018-04-06T03:04:15.134Z,2.40
2018-04-06T03:05:15.122Z,2.40
2018-04-06T03:06:15.105Z,2.20
2018-04-06T03:07:15.116Z,2.80
2018-04-06T03:08:15.095Z,2.60
2018-04-06T03:09:15.093Z,2.50
2018-04-06T03:10:14.946Z,2.20
2018-04-06T03:11:14.951Z,2.00
2018-04-06T03:12:14.942Z,2.20
2018-04-06T03:13:14.858Z,2.30
2018-04-06T03:14:14.878Z,1.90
2018-04-06T03:15:14.822Z,2.70
2018-04-06T03:16:14.798Z,2.20
2018-04-06T03:17:14.781Z,1.90
2018-04-06T03:18:14.714Z,2.50
2018-04-06T03:19:14.720Z,2.10
2018-04-06T03:20:14.677Z,2.50
2018-04-06T03:21:14.632Z,3.20
2018-04-06T03:22:14.640Z,3.00
2018-04-06T03:23:14.718Z,1.70
2018-04-06T03:24:14.554Z,2.10
2018-04-06T03:25:14.549Z,2.80
2018-04-06T03:26:14.484Z,2.40
2018-04-06T03:27:14.509Z,2.60
2018-04-06T03:28:14.580Z,2.20
2018-04-06T03:29:14.759Z,2.60
2018-04-06T03:30:14.361Z,2.40
2018-04-06T03:31:14.363Z,2.30
2018-04-06T03:32:14.324Z,2.60
2018-04-06T03:33:14.287Z,2.50
2018-04-06T03:34:14.418Z,2.30
2018-04-06T03:35:14.215Z,2.40
2018-04-06T03:36:14.204Z,2.70
2018-04-06T03:37:14.232Z,2.40
2018-04-06T03:38:14.131Z,2.20
2018-04-06T03:39:14.085Z,2.80
2018-04-06T03:40:14.098Z,2.10
2018-04-06T03:41:14.086Z,2.80
2018-04-06T03:42:14.033Z,2.50
2018-04-06T03:43:13.968Z,2.40
2018-04-06T03:44:13.950Z,2.50
2018-04-06T03:45:13.919Z,2.50
2018-04-06T03:46:13.868Z,2.60
2018-04-06T03:47:13.856Z,2.60
2018-04-06T03:48:13.801Z,2.70
2018-04-06T03:49:13.828Z,2.80
2018-04-06T03:50:13.761Z,3.10
2018-04-06T03:51:13.718Z,3.10
2018-04-06T03:52:13.713Z,2.70
2018-04-06T03:53:13.676Z,2.40
2018-04-06T03:54:13.628Z,2.80
2018-04-06T03:55:13.629Z,2.50
2018-04-06T03:56:13.577Z,2.90
2018-04-06T03:57:13.535Z,2.90
2018-04-06T03:58:13.537Z,3.00
2018-04-06T03:59:13.500Z,2.60
2018-04-06T04:00:13.494Z,2.80
2018-04-06T04:01:13.415Z,3.10
2018-04-06T04:02:13.392Z,3.00
2018-04-06T04:03:13.364Z,2.60
2018-04-06T04:04:13.327Z,3.00
2018-04-06T04:05:13.296Z,2.70
2018-04-06T04:06:13.262Z,2.70
2018-04-06T04:07:13.231Z,2.90
2018-04-06T04:08:13.191Z,2.90
2018-04-06T04:09:13.188Z,3.40
2018-04-06T04:10:13.175Z,3.10
2018-04-06T04:11:13.106Z,2.90
2018-04-06T04:12:13.073Z,2.50
2018-04-06T04:13:13.093Z,3.10
2018-04-06T04:14:13.024Z,2.70
2018-04-06T04:15:13.002Z,2.80
2018-04-06T04:16:13.739Z,3.60
2018-04-06T04:17:12.971Z,2.80
2018-04-06T04:18:12.900Z,2.50
2018-04-06T04:19:12.914Z,2.70
2018-04-06T04:20:12.823Z,2.90
2018-04-06T04:21:12.817Z,3.00
2018-04-06T04:22:12.748Z,3.00
2018-04-06T04:23:12.739Z,3.10
2018-04-06T04:24:12.686Z,3.30
2018-04-06T04:25:12.779Z,3.10
2018-04-06T04:26:12.693Z,2.80
2018-04-06T04:27:12.603Z,3.30
2018-04-06T04:28:12.612Z,2.50
2018-04-06T04:29:12.579Z,2.80
2018-04-06T04:30:12.500Z,3.00
2018-04-06T04:31:12.487Z,3.40
2018-04-06T04:32:12.488Z,3.00
2018-04-06T04:33:12.412Z,3.00
2018-04-06T04:34:12.414Z,3.70
2018-04-06T04:35:12.393Z,3.10
2018-04-06T04:36:12.327Z,3.20
2018-04-06T04:37:12.329Z,2.90
2018-04-06T04:38:12.268Z,2.80
2018-04-06T04:39:12.241Z,2.30
2018-04-06T04:40:12.200Z,2.90
2018-04-06T04:41:12.232Z,2.80
2018-04-06T04:42:12.262Z,3.10
2018-04-06T04:43:12.117Z,2.70
2018-04-06T04:44:12.103Z,3.20
2018-04-06T04:45:12.101Z,2.90
2018-04-06T04:46:12.054Z,2.80
2018-04-06T04:47:12.004Z,3.30
2018-04-06T04:48:11.960Z,2.50
2018-04-06T04:49:11.952Z,2.40
2018-04-06T04:50:11.914Z,3.60
2018-04-06T04:51:11.883Z,2.70
2018-04-06T04:52:12.945Z,2.70
2018-04-06T04:53:15.319Z,2.30
2018-04-06T04:54:12.192Z,2.80
2018-04-06T04:55:11.746Z,2.90
2018-04-06T04:56:11.721Z,3.10
2018-04-06T04:57:11.698Z,3.30
2018-04-06T04:58:11.670Z,2.80
2018-04-06T04:59:12.177Z,2.70
2018-04-06T05:00:11.600Z,3.10
2018-04-06T05:01:11.566Z,3.00
2018-04-06T05:02:11.573Z,2.70
2018-04-06T05:03:11.500Z,2.90
2018-04-06T05:04:11.498Z,2.70
2018-04-06T05:05:11.456Z,2.60
2018-04-06T05:06:11.438Z,2.60
2018-04-06T05:07:11.371Z,2.70
2018-04-06T05:08:11.351Z,2.70
2018-04-06T05:09:11.343Z,3.10
2018-04-06T05:10:11.320Z,2.90
2018-04-06T05:11:11.277Z,2.90
2018-04-06T05:12:11.260Z,2.70
2018-04-06T05:13:11.223Z,2.70
2018-04-06T05:14:11.143Z,3.30
2018-04-06T05:15:11.172Z,2.60
2018-04-06T05:16:11.129Z,3.30
2018-04-06T05:17:11.077Z,2.80
2018-04-06T05:18:11.085Z,3.00
2018-04-06T05:19:11.034Z,2.90
2018-04-06T05:20:11.011Z,2.50
2018-04-06T05:21:11.016Z,3.00
2018-04-06T05:22:10.911Z,2.80
2018-04-06T05:23:10.884Z,2.80
2018-04-06T05:24:10.902Z,3.10
2018-04-06T05:25:10.819Z,2.90
2018-04-06T05:26:10.838Z,3.10
2018-04-06T05:27:10.766Z,2.90
2018-04-06T05:28:10.740Z,3.40
2018-04-06T05:29:10.704Z,2.70
2018-04-06T05:30:10.707Z,3.10
2018-04-06T05:31:10.695Z,2.60
2018-04-06T05:32:10.617Z,3.10
2018-04-06T05:33:10.583Z,3.00
2018-04-06T05:34:10.574Z,2.50
2018-04-06T05:35:10.505Z,2.70
2018-04-06T05:36:10.492Z,3.60
2018-04-06T05:37:10.471Z,3.40
2018-04-06T05:38:10.446Z,2.90
2018-04-06T05:39:10.414Z,3.10
2018-04-06T05:40:11.327Z,3.40
2018-04-06T05:41:10.369Z,2.80
2018-04-06T05:42:10.311Z,2.30
2018-04-06T05:43:10.295Z,2.80
2018-04-06T05:44:10.234Z,2.90
2018-04-06T05:45:10.211Z,3.10
2018-04-06T05:46:10.220Z,2.90
2018-04-06T05:47:10.148Z,3.20
2018-04-06T05:48:10.119Z,2.90
2018-04-06T05:49:10.083Z,3.10
2018-04-06T05:50:10.049Z,3.10
2018-04-06T05:51:10.062Z,3.60
2018-04-06T05:52:09.986Z,3.20
2018-04-06T05:53:10.008Z,2.80
2018-04-06T05:54:09.924Z,3.00
2018-04-06T05:55:09.917Z,2.80
2018-04-06T05:56:09.896Z,2.90
2018-04-06T05:57:09.866Z,3.00
2018-04-06T05:58:09.823Z,2.90
2018-04-06T05:59:09.809Z,2.80
2018-04-06T06:00:09.762Z,3.00
2018-04-06T06:01:09.734Z,3.40
2018-04-06T06:02:09.712Z,3.20
2018-04-06T06:03:09.654Z,2.90
2018-04-06T06:04:09.622Z,3.80
2018-04-06T06:05:09.612Z,2.50
2018-04-06T06:06:09.571Z,12.20
2018-04-06T06:07:09.530Z,60.00
2018-04-06T06:08:09.560Z,41.50
2018-04-06T06:09:09.478Z,39.40
2018-04-06T06:10:09.470Z,16.50
2018-04-06T06:11:09.413Z,52.60
2018-04-06T06:12:09.458Z,19.70
2018-04-06T06:13:09.357Z,17.90
2018-04-06T06:14:09.324Z,41.80
2018-04-06T06:15:09.303Z,10.70
2018-04-06T06:16:09.292Z,32.20
2018-04-06T06:17:09.236Z,15.90
2018-04-06T06:18:09.196Z,23.00
2018-04-06T06:19:09.498Z,13.20
2018-04-06T06:20:09.348Z,9.90
2018-04-06T06:21:09.134Z,18.60
2018-04-06T06:22:09.067Z,23.60
2018-04-06T06:23:09.061Z,3.30
2018-04-06T06:24:09.076Z,9.00
2018-04-06T06:25:08.976Z,4.90
2018-04-06T06:26:09.026Z,6.20
2018-04-06T06:27:08.901Z,15.10
2018-04-06T06:28:08.912Z,12.80
2018-04-06T06:29:08.946Z,9.30
2018-04-06T06:30:08.806Z,13.80
2018-04-06T06:31:08.794Z,4.60
2018-04-06T06:32:08.776Z,15.60
2018-04-06T06:33:08.808Z,24.50
2018-04-06T06:34:08.720Z,19.70
2018-04-06T06:35:08.708Z,10.60
2018-04-06T06:36:08.711Z,20.40
2018-04-06T06:37:08.625Z,22.40
2018-04-06T06:38:08.570Z,30.20
2018-04-06T06:39:08.561Z,17.20
2018-04-06T06:40:08.534Z,18.00
2018-04-06T06:41:08.496Z,4.70
2018-04-06T06:42:08.482Z,13.00
2018-04-06T06:43:08.483Z,12.90
2018-04-06T06:44:08.398Z,6.80
2018-04-06T06:45:08.403Z,17.70
2018-04-06T06:46:08.333Z,15.60
2018-04-06T06:47:08.374Z,20.10
2018-04-06T06:48:08.273Z,2.40
2018-04-06T06:49:08.235Z,25.50
2018-04-06T06:50:08.225Z,47.30
2018-04-06T06:51:08.213Z,21.50
2018-04-06T06:52:08.184Z,12.70
2018-04-06T06:53:08.154Z,15.80
2018-04-06T06:54:08.117Z,4.10
2018-04-06T06:55:08.117Z,3.10
2018-04-06T06:56:08.064Z,2.80
2018-04-06T06:57:08.011Z,9.90
2018-04-06T06:58:07.970Z,3.90
2018-04-06T06:59:07.940Z,13.50
2018-04-06T07:00:07.910Z,14.10
2018-04-06T07:01:07.910Z,2.80
2018-04-06T07:02:07.884Z,4.60
2018-04-06T07:03:07.823Z,32.00
2018-04-06T07:04:07.829Z,19.10
2018-04-06T07:05:07.889Z,8.40
2018-04-06T07:06:07.783Z,8.70
2018-04-06T07:07:07.727Z,15.20
2018-04-06T07:08:07.680Z,6.90
2018-04-06T07:09:07.671Z,9.10
2018-04-06T07:13:07.665Z,16.70
2018-04-06T07:14:07.544Z,4.00
2018-04-06T07:15:07.463Z,4.40
2018-04-06T07:16:09.254Z,4.60
2018-04-06T07:17:07.442Z,2.80
2018-04-06T07:18:07.394Z,2.80
2018-04-06T07:19:07.365Z,3.50
2018-04-06T07:20:07.362Z,2.60
2018-04-06T07:21:07.318Z,2.50
2018-04-06T07:22:07.248Z,2.20
2018-04-06T07:23:07.306Z,2.60
2018-04-06T07:24:07.198Z,2.50
2018-04-06T07:25:07.224Z,2.40
2018-04-06T07:26:07.176Z,2.70
2018-04-06T07:27:07.111Z,2.10
2018-04-06T07:28:07.083Z,2.30
2018-04-06T07:29:07.053Z,2.60
2018-04-06T07:30:07.013Z,2.70
2018-04-06T07:31:07.003Z,2.20
2018-04-06T07:32:07.017Z,2.10
2018-04-06T07:33:06.952Z,2.40
2018-04-06T07:34:06.910Z,2.60
2018-04-06T07:35:06.919Z,2.50
2018-04-06T07:36:06.829Z,2.90
2018-04-06T07:37:06.830Z,2.60
2018-04-06T07:38:06.787Z,2.30
2018-04-06T07:39:06.762Z,2.40
2018-04-06T07:40:06.717Z,2.30
2018-04-06T07:41:06.709Z,2.40
2018-04-06T07:42:06.695Z,3.20
2018-04-06T07:43:06.665Z,2.60
2018-04-06T07:44:06.641Z,2.70
2018-04-06T07:45:06.612Z,3.50
2018-04-06T07:46:06.571Z,3.50
2018-04-06T07:47:07.185Z,2.90
2018-04-06T07:48:06.500Z,2.50
2018-04-06T07:49:06.455Z,2.80
2018-04-06T07:50:06.443Z,2.40
2018-04-06T07:51:07.669Z,2.60
2018-04-06T07:52:06.459Z,2.70
2018-04-06T07:53:06.345Z,2.80
2018-04-06T07:54:06.321Z,2.70
2018-04-06T07:55:06.315Z,2.50
2018-04-06T07:56:06.269Z,2.60
2018-04-06T07:57:06.311Z,2.90
2018-04-06T07:58:06.202Z,2.50
2018-04-06T07:59:06.779Z,2.50
2018-04-06T08:00:06.148Z,2.60
2018-04-06T08:01:06.160Z,2.50
2018-04-06T08:02:06.138Z,2.70
2018-04-06T08:03:06.045Z,2.70
2018-04-06T08:04:06.052Z,2.60
2018-04-06T08:05:06.009Z,2.50
2018-04-06T08:06:06.015Z,2.60
2018-04-06T08:07:05.949Z,2.80
2018-04-06T08:08:05.901Z,2.30
2018-04-06T08:09:05.905Z,2.40
2018-04-06T08:10:05.842Z,1.70
2018-04-06T08:11:05.835Z,1.80
2018-04-06T08:12:05.810Z,2.50
2018-04-06T08:13:05.751Z,2.20
2018-04-06T08:14:05.737Z,2.30
2018-04-06T08:15:05.745Z,2.20
2018-04-06T08:16:05.807Z,2.40
2018-04-06T08:17:05.640Z,1.90
2018-04-06T08:18:05.669Z,2.10
2018-04-06T08:19:05.624Z,2.30
2018-04-06T08:20:05.613Z,2.40
2018-04-06T08:21:05.547Z,2.80
2018-04-06T08:22:05.512Z,2.30
2018-04-06T08:23:05.499Z,2.00
2018-04-06T08:24:05.453Z,2.80
2018-04-06T08:25:05.422Z,2.10
2018-04-06T08:26:05.407Z,2.10
2018-04-06T08:27:05.369Z,2.10
2018-04-06T08:28:05.342Z,2.40
2018-04-06T08:29:05.320Z,2.00
2018-04-06T08:30:05.291Z,1.60
2018-04-06T08:31:05.287Z,1.90
2018-04-06T08:32:05.253Z,2.40
2018-04-06T08:33:05.215Z,2.50
2018-04-06T08:34:05.245Z,2.00
2018-04-06T08:35:05.166Z,1.90
2018-04-06T08:36:05.105Z,2.10
2018-04-06T08:37:05.074Z,1.90
2018-04-06T08:38:05.074Z,2.20
2018-04-06T08:39:05.179Z,2.80
2018-04-06T08:40:05.036Z,2.20
2018-04-06T08:41:05.013Z,2.50
2018-04-06T08:42:04.974Z,2.30
2018-04-06T08:43:04.915Z,1.90
2018-04-06T08:44:04.906Z,2.10
2018-04-06T08:45:04.840Z,2.60
2018-04-06T08:46:04.831Z,2.20
2018-04-06T08:47:04.858Z,1.70
2018-04-06T08:48:04.768Z,2.00
2018-04-06T08:49:04.768Z,2.00
2018-04-06T08:50:04.736Z,2.90
2018-04-06T08:51:04.700Z,1.60
2018-04-06T08:52:04.687Z,2.20
2018-04-06T08:53:04.655Z,2.40
2018-04-06T08:54:04.640Z,1.80
2018-04-06T08:55:04.581Z,2.20
2018-04-06T08:56:04.576Z,2.10
2018-04-06T08:57:04.509Z,2.20
2018-04-06T08:58:04.495Z,2.00
2018-04-06T08:59:04.490Z,2.00
2018-04-06T09:00:04.430Z,2.10
2018-04-06T09:01:04.429Z,1.90
2018-04-06T09:02:04.421Z,1.70
2018-04-06T09:03:04.355Z,1.90
2018-04-06T09:04:04.337Z,2.10
2018-04-06T09:05:04.323Z,1.90
2018-04-06T09:06:04.268Z,1.90
2018-04-06T09:07:04.255Z,1.60
2018-04-06T09:08:04.250Z,2.10
2018-04-06T09:09:04.182Z,2.00
2018-04-06T09:10:04.175Z,1.80
2018-04-06T09:11:04.162Z,1.80
2018-04-06T09:12:04.108Z,2.30
2018-04-06T09:13:04.101Z,2.00
2018-04-06T09:14:04.087Z,2.00
2018-04-06T09:15:04.171Z,2.40
2018-04-06T09:16:04.036Z,1.90
2018-04-06T09:17:03.988Z,2.10
2018-04-06T09:18:03.938Z,1.70
2018-04-06T09:19:03.939Z,1.50
2018-04-06T09:20:03.930Z,1.60
2018-04-06T09:21:03.866Z,1.70
2018-04-06T09:22:03.844Z,1.90
2018-04-06T09:23:03.848Z,1.60
2018-04-06T09:24:03.777Z,1.70
2018-04-06T09:25:03.765Z,2.60
2018-04-06T09:26:03.770Z,2.00
2018-04-06T09:27:03.730Z,1.80
2018-04-06T09:28:03.688Z,1.60
2018-04-06T09:29:03.665Z,1.50
2018-04-06T09:30:03.647Z,1.70
2018-04-06T09:31:03.614Z,1.90
2018-04-06T09:32:03.592Z,1.80
2018-04-06T09:33:03.544Z,1.80
2018-04-06T09:34:03.507Z,1.80
2018-04-06T09:35:03.546Z,1.60
2018-04-06T09:36:03.465Z,1.70
2018-04-06T09:37:03.435Z,1.80
2018-04-06T09:38:03.435Z,1.80
2018-04-06T09:39:03.378Z,1.20
2018-04-06T09:40:03.380Z,1.70
2018-04-06T09:41:03.333Z,1.60
2018-04-06T09:42:03.297Z,2.40
2018-04-06T09:43:03.285Z,1.60
2018-04-06T09:44:03.284Z,2.00
2018-04-06T09:45:03.208Z,1.60
2018-04-06T09:46:03.198Z,1.40
2018-04-06T09:47:03.171Z,2.10
2018-04-06T09:48:03.213Z,1.50
2018-04-06T09:49:04.406Z,1.70
2018-04-06T09:50:03.732Z,1.70
2018-04-06T09:52:09.777Z,1.50
2018-04-06T09:53:03.033Z,1.50
